Aérodrome :
LOGIN :

S'inscrire | Disclaimer

   EN    FR    IT 

 










Légende :    VFR   VFR Marginal   IFR   IFR Intensif   IFR Très Intensif
Visi : 
Plafond : 
>= 8 km
>= 3000ft
5 à 8 km
1000 à 3000 ft
1500m à 5 km
500 à 1000 ft
800 à 1500m
200 à 500 ft
< 800m
< 200 ft
Symboles :   Orages  Brouillard  Fortes neiges  Fortes précipitations  Vent > 20 kt
SIGMETs :   Divers  Orages  Givrage  Turbulence  Onde Orograph.  Cendres Volcan.







- Altitude de l'aérodrome : 69 ft
- Code IATA : AES


ENAL - Ålesund

DERNIER METAR :
  • 222020Z 21017KT 9999 SHRA BKN030 08/04 Q1003

METARs EXPIRÉS :
  • 221950Z 21020KT 9999 -RA FEW018 BKN027 07/05 Q1004
  • 221920Z 20019KT 9999 SHRA BKN016 08/04 Q1003
  • 221850Z 22021KT 6000 SHRA BKN022 07/05 Q1004
  • 221820Z 21028G40KT 7000 SHRA BKN020 08/05 Q1004
  • 221750Z 21027G39KT 6000 -RA BKN041 08/05 Q1004

TAF TAF ENAL
Valide du 22 à 18h jusqu'au 22 à 23h UTC


221700Z 2218/2223 21020KT 9999 -RA BKN025
TEMPO 2218/2223 21025G35KT 4000 RA BKN012
Pas de NOTAMs connus pour ce terrain.
1 SIGMET publié pour la FIR Norway (ENOR) :
 
Turbulence forte
ENBD SIGMET C04 VALID 222000/230000 ENVV
ENOR NORWAY FIR SEV TURB FCST WI N6200 E00500 - N6230 E00510 - N6350 E00830 - N6430 E01130 - N6320 E01020 - N6200 E00630 - N6200 E00500 SFC/FL080 STNR NC=



MET'MAP, la Météo Aéronautique d'un coup d'oeil ! - Copyright ORBIFLY Décembre 2007 - Disclaimer

ORBIFLY MET'MAP TEAM :

Programmation & Développement : Alexandra Zaïnal
Conception & Développement : Baudouin d'Aumeries
Co-Programmation & Développement : Marc-Olivier Méhu
Soutien technique & logistique : Manuel Goepfert

Contact : metmap@orbifly.com




SOURCES & CREDITS :

   NOAA